Current Metar reports for airports in our Region

Nearby METAR Reports

Metar reports are mainly used by pilots for information on what is happening at their destination during their pre-flight weather briefings and by meteorologists to assist in short term forecasts. A raw Metar is one of the most universal ways to communicate weather information in the world and are usually transmitted by airports, but some come from permanent sanctioned weather observatories.

Listed below are Metars from airports within 100 miles of our station here in Smethport Pa. The first one of course is the Bradford Regional Airport, then the Olean NY airport and so on. Each airport has it's own table to display it's data and at the bottom of the table is 'Raw' Metar for each airport. Most pilots and weather forecasters can look at the raw data and tell you what is up, but we use a script that handles all of the details for us.

KBFD - Bradford, Pennsylvania, USA
Distance from station: NW 7mi, 11km
Updated: Wed, 21-Feb-2018 1:46pm EST
Light rain, Mist, Overcast
Light rain, Mist, Overcast
 Wind from WNW
Wind: WNW 10 mph , 17 km/h
Temperature: 54°F , 12°C
Dew Point: 54°F , 12°C
Humidity: 100%
Barometer: 30.29 inHg , 1025.7 hPa
Summary: Light rain, Mist
Clouds: Overcast
Visibility: 3 miles , 5 km
Cloud details: Mostly Cloudy 800 ft
Overcast 1400 ft
2018/02/21 18:46 KBFD 211846Z AUTO 30009KT 3SM -RA BR BKN008 OVC014 12/12 A3029 RMK AO2 RAE06B15 CIG 006V011 P0001 T01220117
KOLE - Olean, New York, USA
Distance from station: NNE 37mi, 59km
Updated: Wed, 21-Feb-2018 1:35pm EST
Light drizzle, Overcast
Light drizzle, Overcast
 Wind from NW
Wind: NW 12 mph , 19 km/h, Gust: 17 mph , 28 km/h
Temperature: 43°F , 6°C
Wind Chill: 37°F , 3°C
Dew Point: 43°F , 6°C
Humidity: 100%
Barometer: 30.30 inHg , 1026.1 hPa
Summary: Light Drizzle
Clouds: Overcast
Visibility: 7 miles , 11 km
Cloud details: Overcast 400 ft
2018/02/21 18:35 KOLE 211835Z AUTO 31010G15KT 7SM -DZ OVC004 06/06 A3030 RMK AO2
 
KELZ - Wellsville, New York, USA
Distance from station: NE 40mi, 64km
Updated: Wed, 21-Feb-2018 1:52pm EST
Light rain, Mist, Overcast
Light rain, Mist, Overcast
 Wind from N
Wind: N 12 mph , 19 km/h
Temperature: 48°F , 9°C
Wind Chill: 43°F , 6°C
Dew Point: 46°F , 8°C
Humidity: 94%
Barometer: 30.30 inHg , 1026.1 hPa
Summary: Light rain, Mist
Clouds: Overcast
Visibility: 4 miles , 6 km
Cloud details: Mostly Cloudy 200 ft
Overcast 600 ft
2018/02/21 18:52 KELZ 211852Z AUTO 01010KT 4SM -RA BR BKN002 OVC006 09/08 A3030 RMK AO2 P0000
KDUJ - Du Bois, Pennsylvania, USA
Distance from station: SSW 42mi, 68km
Updated: Wed, 21-Feb-2018 1:53pm EST
Light rain, Mist, Overcast
Light rain, Mist, Overcast
 Wind from WNW
Wind: WNW 6 mph , 9 km/h
Temperature: 54°F , 12°C
Dew Point: 50°F , 10°C
Humidity: 88%
Barometer: 30.29 inHg , 1025.7 hPa
Summary: Light rain, Mist
Clouds: Overcast
Visibility: 2 1/2 miles , 4 km
Cloud details: Overcast 3300 ft
2018/02/21 18:53 KDUJ 211853Z AUTO 30005KT 2 1/2SM -RA BR OVC033 12/10 A3029 RMK AO2 VIS 2V5 RAB47 SLP255 P0001 T01220100
 
KJHW - Jamestown, New York, USA
Distance from station: NW 46mi, 75km
Updated: Wed, 21-Feb-2018 1:24pm EST
Light Rain
Light Rain
 
Summary: Light Rain
Visibility: 3 miles , 5 km
2018/02/21 18:24 KJHW 211824Z AUTO 3SM -RA RMK AO2 UPB07E11RAB11 FZRANO $
KFIG - Clearfield, Pennsylvania, USA
Distance from station: S 47mi, 75km
Updated: Wed, 21-Feb-2018 1:54pm EST
Overcast
Overcast
 Wind from NNW
Wind: NNW 12 mph , 19 km/h, Gust: 20 mph , 31 km/h
Temperature: 61°F , 16°C
Dew Point: 52°F , 11°C
Humidity: 72%
Barometer: 30.28 inHg , 1025.4 hPa
Clouds: Overcast
Visibility: 10 miles , 16 km
Cloud details: Mostly Cloudy 2600 ft
Overcast 3300 ft
2018/02/21 18:54 KFIG 211854Z AUTO 33010G17KT 10SM BKN026 OVC033 16/11 A3028 RMK AO2 SLP255 T01560106
 
KDKK - Dunkirk, New York, USA
Distance from station: NW 66mi, 106km
Updated: Wed, 21-Feb-2018 1:53pm EST
Mist, Overcast
Mist, Overcast
 Wind from W
Wind: W 8 mph , 13 km/h
Temperature: 37°F , 3°C
Wind Chill: 31°F , -1°C
Dew Point: 36°F , 2°C
Humidity: 93%
Barometer: 30.43 inHg , 1030.5 hPa
Summary: Mist
Clouds: Overcast
Visibility: 4 miles , 6 km
Cloud details: Mostly Cloudy 600 ft
Overcast 1000 ft
2018/02/21 18:53 KDKK 211853Z AUTO 28007KT 4SM UP BR BKN006 OVC010 03/02 A3043 RMK AO2 RAE1758B23E39UPB39 CIG 003V009 SLP308 P0000 T00280022
KUNV - State College, Pennsylvania, USA
Distance from station: SSE 71mi, 114km
Updated: Wed, 21-Feb-2018 1:53pm EST
Mostly Cloudy
Mostly Cloudy
 Wind from WSW
Wind: WSW 12 mph , 19 km/h, Gust: 25 mph , 41 km/h
Temperature: 72°F , 22°C
Dew Point: 55°F , 13°C
Humidity: 57%
Barometer: 30.22 inHg , 1023.4 hPa
Clouds: Mostly Cloudy
Visibility: 10 miles , 16 km
Cloud details: Mostly Cloudy 5500 ft
Mostly Cloudy 6000 ft
Mostly Cloudy 8500 ft
2018/02/21 18:53 KUNV 211853Z 24010G22KT 10SM BKN055 BKN060 BKN085 22/13 A3022
 
KFKL - Franklin, Pennsylvania, USA
Distance from station: WSW 72mi, 116km
Updated: Wed, 21-Feb-2018 12:56pm EST
Light rain, Mist, Overcast
Light rain, Mist, Overcast
 Wind from WNW
Wind: WNW 13 mph , 20 km/h
Temperature: 46°F , 8°C
Wind Chill: 40°F , 4°C
Dew Point: 46°F , 8°C
Humidity: 100%
Barometer: 30.34 inHg , 1027.4 hPa
Summary: Light rain, Mist
Clouds: Overcast
Visibility: 3 miles , 5 km
Cloud details: Overcast 300 ft
2018/02/21 17:56 KFKL 211756Z AUTO 30011KT 3SM -RA BR OVC003 08/08 A3034 RMK AO2 SLP275 P0001 60002 T00830078 10183 20083 51017
KDSV - Dansville, New York, USA
Distance from station: NE 73mi, 117km
Updated: Wed, 21-Feb-2018 1:54pm EST
Mist, Overcast
Mist, Overcast
 Wind from NW
Wind: NW 12 mph , 19 km/h
Temperature: 43°F , 6°C
Wind Chill: 37°F , 3°C
Dew Point: 39°F , 4°C
Humidity: 87%
Barometer: 30.36 inHg , 1028.1 hPa
Summary: Mist
Clouds: Overcast
Visibility: 6 miles , 10 km
Cloud details: Few Clouds 700 ft
Mostly Cloudy 1000 ft
Overcast 2700 ft
2018/02/21 18:54 KDSV 211854Z AUTO 32010KT 6SM BR FEW007 BKN010 OVC027 06/04 A3036 RMK AO2 RAB02E37 SLP292 P0001 T00610039
 
KIDI - Indiana/Stewart, Pennsylvania, USA
Distance from station: SSW 81mi, 130km
Updated: Wed, 21-Feb-2018 1:55pm EST
Overcast
Overcast
 Wind from N
Wind: N 10 mph , 17 km/h
Temperature: 59°F , 15°C
Dew Point: 52°F , 11°C
Humidity: 77%
Barometer: 30.34 inHg , 1027.4 hPa
Clouds: Overcast
Visibility: 10 miles , 16 km
Cloud details: Overcast 2700 ft
2018/02/21 18:55 KIDI 211855Z AUTO 35009KT 10SM OVC027 15/11 A3034 RMK A01
KBUF - Buffalo/Cheektow, New York, USA
Distance from station: N 84mi, 136km
Updated: Wed, 21-Feb-2018 1:54pm EST
Light rain, Overcast
Light rain, Overcast
 Wind from WNW
Wind: WNW 10 mph , 17 km/h
Temperature: 39°F , 4°C
Wind Chill: 32°F , 0°C
Dew Point: 36°F , 2°C
Humidity: 87%
Barometer: 30.39 inHg , 1029.1 hPa
Summary: Light Rain
Clouds: Overcast
Visibility: 10 miles , 16 km
Cloud details: Partly Cloudy 800 ft
Mostly Cloudy 1300 ft
Overcast 3200 ft
2018/02/21 18:54 KBUF 211854Z 29009KT 10SM -RA SCT008 BKN013 OVC032 04/02 A3039 RMK AO2 SLP295 P0000 T00390022 $
 
KGKJ - Meadville, Pennsylvania, USA
Distance from station: W 86mi, 138km
Updated: Wed, 21-Feb-2018 1:53pm EST
Light rain, Overcast
Light rain, Overcast
 Wind from NNW
Wind: NNW 10 mph , 17 km/h
Temperature: 37°F , 3°C
Wind Chill: 30°F , -1°C
Dew Point: 37°F , 3°C
Humidity: 100%
Barometer: 30.40 inHg , 1029.5 hPa
Summary: Light Rain
Clouds: Overcast
Visibility: 10 miles , 16 km
Cloud details: Overcast 500 ft
2018/02/21 18:53 KGKJ 211853Z AUTO 34009KT 10SM -RA OVC005 03/03 A3040 RMK AO2 SLP297 P0000 T00330033
KERI - Erie, Pennsylvania, USA
Distance from station: WNW 87mi, 140km
Updated: Wed, 21-Feb-2018 1:51pm EST
Light rain, Mist, Overcast
Light rain, Mist, Overcast
 Wind from WNW
Wind: WNW 8 mph , 13 km/h
Temperature: 36°F , 2°C
Wind Chill: 30°F , -1°C
Dew Point: 34°F , 1°C
Humidity: 93%
Barometer: 30.45 inHg , 1031.2 hPa
Summary: Light rain, Mist
Clouds: Overcast
Visibility: 2 miles , 3 km
Cloud details: Overcast 300 ft
2018/02/21 18:51 KERI 211851Z 29007KT 2SM -RA BR OVC003 02/01 A3045 RMK AO2 UPE04RAB04 SLP314 P0002 T00220011 $
 
KELM - Elmira, New York, USA
Distance from station: ENE 90mi, 145km
Updated: Wed, 21-Feb-2018 1:53pm EST
Overcast
Overcast
 Wind from NE
Wind: NE 18 mph , 30 km/h
Temperature: 50°F , 10°C
Wind Chill: 44°F , 7°C
Dew Point: 46°F , 8°C
Humidity: 88%
Barometer: 30.27 inHg , 1025.1 hPa
Clouds: Overcast
Visibility: 10 miles , 16 km
Cloud details: Mostly Cloudy 2800 ft
Overcast 3500 ft
2018/02/21 18:53 KELM 211853Z 05016KT 10SM BKN028 OVC035 10/08 A3027 RMK AO2 WSHFT 1803 SLP253 T01000078
KIPT - Williamsport, Pennsylvania, USA
Distance from station: ESE 91mi, 146km
Updated: Wed, 21-Feb-2018 1:54pm EST
Overcast
Overcast
 Wind from W
Wind: W 6 mph , 9 km/h
Temperature: 64°F , 18°C
Dew Point: 54°F , 12°C
Humidity: 68%
Barometer: 30.20 inHg , 1022.7 hPa
Clouds: Overcast
Visibility: 10 miles , 16 km
Cloud details: Few Clouds 5500 ft
Mostly Cloudy 7000 ft
Overcast 9500 ft
2018/02/21 18:54 KIPT 211854Z 27005KT 10SM FEW055 BKN070 OVC095 18/12 A3020 RMK AO2 SLP227 T01780122
 
KBTP - Butler Co., Pennsylvania, USA
Distance from station: SW 98mi, 157km
Updated: Wed, 21-Feb-2018 1:35pm EST
Light rain, Overcast
Light rain, Overcast
 Wind from NW
Wind: NW 6 mph , 9 km/h
Temperature: 55°F , 13°C
Dew Point: 54°F , 12°C
Humidity: 94%
Barometer: 30.33 inHg , 1027.1 hPa
Summary: Light Rain
Clouds: Overcast
Visibility: 8 miles , 13 km
Cloud details: Mostly Cloudy 700 ft
Mostly Cloudy 1100 ft
Overcast 3900 ft
2018/02/21 18:35 KBTP 211835Z AUTO 32005KT 8SM -RA BKN007 BKN011 OVC039 13/12 A3033 RMK AO2
KAOO - Altoona, Pennsylvania, USA
Distance from station: S 99mi, 159km
Updated: Wed, 21-Feb-2018 1:53pm EST
Overcast
Overcast
 Wind from WSW
Wind: WSW 23 mph , 37 km/h, Gust: 30 mph , 48 km/h
Temperature: 73°F , 23°C
Dew Point: 55°F , 13°C
Humidity: 53%
Barometer: 30.23 inHg , 1023.7 hPa
Clouds: Overcast
Visibility: 10 miles , 16 km
Cloud details: Few Clouds 5000 ft
Mostly Cloudy 6000 ft
Overcast 9500 ft
2018/02/21 18:53 KAOO 211853Z AUTO 25020G26KT 10SM FEW050 BKN060 OVC095 23/13 A3023 RMK AO2 PK WND 26026/1811 SLP232 T02330128
 
KPIT - Pittsburg, Pennsylvania, USA
Distance from station: SSW 126mi, 203km
Updated: Wed, 21-Feb-2018 1:51pm EST
Overcast
Overcast
 Wind from NNW
Wind: NNW 7 mph , 11 km/h
Temperature: 64°F , 18°C
Dew Point: 55°F , 13°C
Humidity: 73%
Barometer: 30.32 inHg , 1026.8 hPa
Clouds: Overcast
Visibility: 10 miles , 16 km
Cloud details: Few Clouds 1100 ft
Mostly Cloudy 3300 ft
Overcast 4000 ft
2018/02/21 18:51 KPIT 211851Z 33006KT 10SM FEW011 BKN033 OVC040 18/13 A3032 RMK AO2 DZE31RAB31E49 SLP270 P0001 T01830128
KCLE - Cleveland, Ohio, USA
Distance from station: WSW 160mi, 258km
Updated: Wed, 21-Feb-2018 1:51pm EST
Light rain, Overcast
Light rain, Overcast
 Wind from NNE
Wind: NNE 12 mph , 19 km/h
Temperature: 37°F , 3°C
Wind Chill: 29°F , -2°C
Dew Point: 36°F , 2°C
Humidity: 93%
Barometer: 30.48 inHg , 1032.2 hPa
Summary: Light Rain
Clouds: Overcast
Visibility: 10 miles , 16 km
Cloud details: Overcast 500 ft
2018/02/21 18:51 KCLE 211851Z 02010KT 10SM -RA OVC005 03/02 A3048 RMK AO2 RAB11 SLP324 P0003 T00330022